METAR stanice u blizini

 

LYBE - Beograd / Surčin, Srbija
Ažurirano: 03/07/2022 05:30
Vedro
Vedro
 Pravac vetra JJZ
Vetar: JJZ 11 km/h
Temperatura: 21°C
Tačka rose: 18°C
Vlažnost: 83%
Pritisak: 1018 hPa
Pregled: Vedro
Vidljivost: greater than 10 km
2022/07/03 03:30 LYBE 030330Z 21006KT CAVOK 21/18 Q1018 NOSIG
LYBT - Beograd / Batajnica, Srbija
Ažurirano: 03/07/2022 05:30
Vedro
Vedro
 Pravac vetra varies
Vetar: varies 4 km/h
Temperatura: 19°C
Tačka rose: 19°C
Vlažnost: 100%
Pritisak: 1018 hPa
Pregled: Vedro
Vidljivost: greater than 10 km
2022/07/03 03:30 LYBT 030330Z VRB02KT CAVOK 19/19 Q1018 NOSIG
LYVR - Vršac, Srbija
Ažurirano: 03/07/2022 05:30
Vedro
Vedro
 Pravac vetra J
Vetar: J 6 km/h
Temperatura: 22°C
Tačka rose: 18°C
Vlažnost: 78%
Pritisak: 1018 hPa
Pregled: Vedro
Vidljivost: greater than 10 km
2022/07/03 03:30 LYVR 030330Z AUTO 19003KT 160V220 CAVOK 22/18 Q1018
 
LYKV - Lađevci, Srbija
Ažurirano: 03/07/2022 05:30
Vedro
Vedro
 Pravac vetra varies
Vetar: varies 2 km/h
Temperatura: 17°C
Tačka rose: 17°C
Vlažnost: 100%
Pritisak: 1019 hPa
Pregled: Vedro
Vidljivost: greater than 10 km
2022/07/03 03:30 LYKV 030330Z VRB01KT CAVOK 17/17 Q1019 NOSIG
LYNI - Niš, Srbija
Ažurirano: 03/07/2022 05:30
Vedro
Vedro
 Pravac vetra I
Vetar: I 2 km/h
Temperatura: 18°C
Tačka rose: 16°C
Vlažnost: 88%
Pritisak: 1019 hPa
Pregled: Vedro
Vidljivost: greater than 10 km
2022/07/03 03:30 LYNI 030330Z 08001KT CAVOK 18/16 Q1019 NOSIG
BKPR - Priština, Srbija
Ažurirano: 03/07/2022 05:30
Vedro
Vedro
 Pravac vetra varies
Vetar: varies 4 km/h
Temperatura: 17°C
Tačka rose: 15°C
Vlažnost: 88%
Pritisak: 1021 hPa
Pregled: Vedro
Vidljivost: greater than 10 km
2022/07/03 03:30 BKPR 030330Z VRB02KT CAVOK 17/15 Q1021 NOSIG
 
LHPP - Pecs / Pogany, Hungary
Ažurirano: 03/07/2022 05:15
Vedro
Vedro
 Pravac vetra ISI
Vetar: ISI 9 km/h
Temperatura: 20°C
Tačka rose: 13°C
Vlažnost: 64%
Pritisak: 1019 hPa
Pregled: Vedro
Vidljivost: greater than 10 km
2022/07/03 03:15 LHPP 030315Z AUTO 06005KT 030V100 CAVOK 20/13 Q1019
LHUD - Szeged, Hungary
Ažurirano: 04/07/2019 01:45
NOT Current
Vedro
Vedro
 Pravac vetra S
Vetar: S 7 km/h
Temperatura: 18°C
Tačka rose: 13°C
Vlažnost: 73%
Pritisak: 1019 hPa
Pregled: Vedro
Vidljivost: greater than 10 km
2019/07/03 23:45 LHUD 032345Z 35004KT CAVOK 18/13 Q1019
LRTR - Timisoara, Romania
Ažurirano: 03/07/2022 05:30
Vedro
Vedro
 Pravac vetra I
Vetar: I 9 km/h
Temperatura: 19°C
Tačka rose: 19°C
Vlažnost: 100%
Pritisak: 1018 hPa
Pregled: Vedro
Vidljivost: greater than 10 km
2022/07/03 03:30 LRTR 030330Z 08005KT CAVOK 19/19 Q1018 NOSIG
 
LRCV - Craiova, Romania
Ažurirano: 03/07/2022 05:30
Vedro
Vedro
 Pravac vetra varies
Vetar: varies 4 km/h
Temperatura: 20°C
Tačka rose: 19°C
Vlažnost: 94%
Pritisak: 1018 hPa
Pregled: Vedro
Vidljivost: greater than 10 km
2022/07/03 03:30 LRCV 030330Z VRB02KT CAVOK 20/19 Q1018
LBSF - Sofia, Bulgaria
Ažurirano: 03/07/2022 05:30
Vedro
Vedro
 Pravac vetra calm
Vetar: Tišina
Temperatura: 16°C
Tačka rose: 15°C
Vlažnost: 94%
Pritisak: 1021 hPa
Pregled: Vedro
Vidljivost: greater than 10 km
2022/07/03 03:30 LBSF 030330Z 00000KT CAVOK 16/15 Q1021 NOSIG
LWSK - Skoplje, Makedonija
Ažurirano: 03/07/2022 05:30
Vedro
Vedro
 Pravac vetra ISI
Vetar: ISI 2 km/h
Temperatura: 19°C
Tačka rose: 17°C
Vlažnost: 88%
Pritisak: 1019 hPa
Pregled: Vedro
Vidljivost: greater than 10 km
2022/07/03 03:30 LWSK 030330Z 07001KT CAVOK 19/17 Q1019 NOSIG
 
LYPG - Podgorica, Crna Gora
Ažurirano: 03/07/2022 05:30
Vedro
Vedro
 Pravac vetra SSZ
Vetar: SSZ 11 km/h
Temperatura: 26°C
Tačka rose: 13°C
Vlažnost: 45%
Pritisak: 1015 hPa
Pregled: Vedro
Vidljivost: greater than 10 km
2022/07/03 03:30 LYPG 030330Z 33006KT 290V020 CAVOK 26/13 Q1015 NOSIG
LQSA - Sarajevo, Bosna i Hercegovina
Ažurirano: 03/07/2022 05:30
Vedro
Vedro
 Pravac vetra varies
Vetar: varies 2 km/h
Temperatura: 17°C
Tačka rose: 16°C
Vlažnost: 94%
Pritisak: 1020 hPa
Pregled: Vedro
Vidljivost: greater than 10 km
2022/07/03 03:30 LQSA 030330Z VRB01KT CAVOK 17/16 Q1020
LDOS - Osijek, Hrvatksa
Ažurirano: 03/07/2022 05:30
Vedro
Vedro
 Pravac vetra Z
Vetar: Z 9 km/h
Temperatura: 17°C
Tačka rose: 15°C
Vlažnost: 88%
Pritisak: 1018 hPa
Pregled: Vedro
Vidljivost: greater than 10 km
2022/07/03 03:30 LDOS 030330Z 28005KT CAVOK 17/15 Q1018